createdAt,value
2022-07-31T00:00:25.906Z,147869.34
2022-07-31T00:02:52.942Z,147863.25
2022-07-31T00:05:19.961Z,147836.34
2022-07-31T00:07:46.986Z,147838.81
2022-07-31T00:10:14.087Z,147825.34
2022-07-31T00:12:41.135Z,147852.25
2022-07-31T00:15:12.776Z,147815.59
2022-07-31T00:17:40.836Z,147803.34
2022-07-31T00:20:10.097Z,147807.03
2022-07-31T00:22:37.570Z,147825.34
2022-07-31T00:25:05.265Z,147832.66
2022-07-31T00:27:33.017Z,147796.00
2022-07-31T00:30:00.221Z,147807.03
2022-07-31T00:32:27.551Z,147798.47
2022-07-31T00:34:54.704Z,147793.56
2022-07-31T00:37:22.369Z,147791.09
2022-07-31T00:39:49.572Z,147786.22
2022-07-31T00:42:22.716Z,147777.66
2022-07-31T00:44:51.089Z,147776.44
2022-07-31T00:47:18.836Z,147764.22
2022-07-31T00:49:51.468Z,147783.81
2022-07-31T00:52:18.713Z,147766.69
2022-07-31T00:54:45.773Z,147764.22
2022-07-31T00:57:12.820Z,147759.31
2022-07-31T00:59:39.853Z,147766.69
2022-07-31T01:02:08.269Z,147759.31
2022-07-31T01:04:36.501Z,147745.88
2022-07-31T01:07:04.158Z,147739.78
2022-07-31T01:09:31.492Z,147744.66
2022-07-31T01:12:16.246Z,147722.66
2022-07-31T01:14:50.627Z,147753.22
2022-07-31T01:17:21.644Z,147716.53
2022-07-31T01:19:50.537Z,147730.00
2022-07-31T01:22:41.900Z,147748.34
2022-07-31T01:25:17.353Z,147563.81
2022-07-31T01:28:15.042Z,147722.66
2022-07-31T01:31:05.032Z,147666.41
2022-07-31T01:33:48.434Z,147695.78
2022-07-31T01:36:27.451Z,147707.97
2022-07-31T01:38:55.845Z,147688.44
2022-07-31T01:41:28.755Z,147694.53
2022-07-31T01:43:58.236Z,147689.63
2022-07-31T01:46:27.841Z,147674.97
2022-07-31T01:48:57.268Z,147672.53
2022-07-31T01:51:27.386Z,147674.97
2022-07-31T01:53:55.934Z,147654.19
2022-07-31T01:56:24.332Z,147612.66
2022-07-31T01:58:53.182Z,147626.09
2022-07-31T02:01:41.714Z,147643.22
2022-07-31T02:04:10.450Z,147626.09
2022-07-31T02:06:40.534Z,147618.78
2022-07-31T02:09:07.855Z,147615.13
2022-07-31T02:11:35.986Z,147610.22
2022-07-31T02:14:22.923Z,147607.75
2022-07-31T02:16:50.593Z,147599.22
2022-07-31T02:19:25.429Z,147609.03
2022-07-31T02:21:53.199Z,147609.03
2022-07-31T02:24:20.254Z,147598.00
2022-07-31T02:26:47.702Z,147518.63
2022-07-31T02:29:20.342Z,147576.00
2022-07-31T02:32:01.974Z,147573.59
2022-07-31T02:34:39.205Z,147552.78
2022-07-31T02:37:07.483Z,147529.59
2022-07-31T02:39:36.214Z,147519.81
2022-07-31T02:42:04.592Z,147532.06
2022-07-31T02:44:34.483Z,147525.91
2022-07-31T02:47:02.626Z,147513.75
2022-07-31T02:49:31.888Z,147505.19
2022-07-31T02:52:00.253Z,147501.50
2022-07-31T02:54:28.119Z,147488.03
2022-07-31T02:56:55.547Z,147451.38
2022-07-31T02:59:22.673Z,147453.84
2022-07-31T03:01:59.216Z,147386.69
2022-07-31T03:04:29.833Z,147435.53
2022-07-31T03:06:57.025Z,147420.88
2022-07-31T03:09:24.162Z,147398.91
2022-07-31T03:12:04.745Z,147400.09
2022-07-31T03:14:35.165Z,147387.88
2022-07-31T03:17:04.881Z,147413.53
2022-07-31T03:19:32.538Z,147419.63
2022-07-31T03:22:00.705Z,147414.75
2022-07-31T03:24:28.728Z,147422.09
2022-07-31T03:26:55.930Z,147395.22
2022-07-31T03:29:39.172Z,147413.53
2022-07-31T03:32:10.841Z,147415.97
2022-07-31T03:34:37.922Z,147378.13
2022-07-31T03:37:05.041Z,147351.25
2022-07-31T03:39:32.179Z,147356.13
2022-07-31T03:42:05.298Z,147346.38
2022-07-31T03:44:33.191Z,147346.38
2022-07-31T03:47:00.732Z,147346.38
2022-07-31T03:49:29.788Z,147357.38
2022-07-31T03:51:58.267Z,147361.03
2022-07-31T03:54:25.846Z,147370.81
2022-07-31T03:57:20.123Z,147342.72
2022-07-31T03:59:49.974Z,147351.25
2022-07-31T04:02:19.053Z,147273.13
2022-07-31T04:04:50.661Z,147364.69
2022-07-31T04:07:17.904Z,147356.13
2022-07-31T04:09:45.196Z,147354.94
2022-07-31T04:12:14.168Z,147361.03
2022-07-31T04:14:41.357Z,147375.72
2022-07-31T04:17:08.767Z,147383.00
2022-07-31T04:19:36.453Z,147402.56
2022-07-31T04:22:04.311Z,147417.22
2022-07-31T04:24:32.528Z,147425.78
2022-07-31T04:27:16.339Z,147361.03
2022-07-31T04:29:45.732Z,147414.75
2022-07-31T04:32:12.877Z,147426.97
2022-07-31T04:34:48.486Z,147446.50
2022-07-31T04:37:16.732Z,147463.63
2022-07-31T04:39:44.009Z,147444.09
2022-07-31T04:42:11.957Z,147424.50
2022-07-31T04:44:39.376Z,147426.97
2022-07-31T04:47:07.821Z,147439.22
2022-07-31T04:49:40.755Z,147456.28
2022-07-31T04:52:08.717Z,147370.81
2022-07-31T04:54:38.681Z,147389.13
2022-07-31T04:57:08.178Z,147463.63
2022-07-31T04:59:59.985Z,147469.69
2022-07-31T05:02:22.380Z,147456.28
2022-07-31T05:04:52.571Z,147473.38
2022-07-31T05:07:27.704Z,147505.19
2022-07-31T05:09:56.971Z,147541.81
2022-07-31T05:12:24.443Z,147544.25
2022-07-31T05:14:51.563Z,147541.81
2022-07-31T05:17:19.017Z,147568.69
2022-07-31T05:19:58.233Z,147561.34
2022-07-31T05:22:41.716Z,147578.47
2022-07-31T05:25:16.695Z,147568.69
2022-07-31T05:27:45.065Z,147555.25
2022-07-31T05:30:17.175Z,147574.78
2022-07-31T05:32:58.365Z,147546.69
2022-07-31T05:35:25.639Z,147546.69
2022-07-31T05:37:52.705Z,147522.28
2022-07-31T05:40:26.942Z,147624.88
2022-07-31T05:43:12.646Z,147600.47
2022-07-31T05:46:00.498Z,147623.66
2022-07-31T05:48:27.927Z,147611.44
2022-07-31T05:50:55.202Z,147643.22
2022-07-31T05:53:22.441Z,147685.97
2022-07-31T05:56:09.171Z,147599.22
2022-07-31T05:58:49.472Z,147678.66
2022-07-31T06:01:17.054Z,147667.63
2022-07-31T06:03:51.726Z,147644.41
2022-07-31T06:06:26.338Z,147642.00
2022-07-31T06:08:53.487Z,147639.53
2022-07-31T06:11:20.999Z,147672.53
2022-07-31T06:13:48.098Z,147656.66
2022-07-31T06:16:21.077Z,147732.47
2022-07-31T06:18:48.185Z,147749.56
2022-07-31T06:23:41.271Z,147783.81
2022-07-31T06:26:34.646Z,147810.69
2022-07-31T06:29:02.933Z,147837.53
2022-07-31T06:31:29.974Z,147870.59
2022-07-31T06:33:58.656Z,147923.16
2022-07-31T06:36:33.261Z,147915.84
2022-07-31T06:39:02.306Z,147996.56
2022-07-31T06:41:44.301Z,148032.03
2022-07-31T06:44:31.058Z,148029.56
2022-07-31T06:47:18.036Z,148033.25
2022-07-31T06:49:55.116Z,148006.34
2022-07-31T06:52:26.039Z,147977.00
2022-07-31T06:54:54.016Z,147917.03
2022-07-31T06:57:21.050Z,147956.19
2022-07-31T06:59:48.391Z,148018.56
2022-07-31T07:02:16.550Z,148016.09
2022-07-31T07:05:06.290Z,148030.81
2022-07-31T07:07:31.815Z,148102.94
2022-07-31T07:09:59.752Z,148144.53
2022-07-31T07:12:55.553Z,148197.22
2022-07-31T07:15:22.857Z,148139.66
2022-07-31T07:17:49.901Z,148251.06
2022-07-31T07:20:22.226Z,148282.84
2022-07-31T07:22:49.310Z,148331.81
2022-07-31T07:25:31.948Z,148422.44
2022-07-31T07:28:00.306Z,148426.13
2022-07-31T07:30:28.731Z,148408.97
2022-07-31T07:32:59.687Z,148491.00
2022-07-31T07:35:33.826Z,148449.38
2022-07-31T07:38:04.507Z,148470.16
2022-07-31T07:40:33.029Z,148488.53
2022-07-31T07:43:03.182Z,148520.38
2022-07-31T07:45:31.542Z,148570.63
2022-07-31T07:48:07.189Z,148593.91
2022-07-31T07:50:54.842Z,148579.22
2022-07-31T07:53:40.746Z,148667.38
2022-07-31T07:56:30.638Z,148696.81
2022-07-31T07:59:03.451Z,148770.38
2022-07-31T08:01:49.145Z,148796.06
2022-07-31T08:04:24.580Z,148763.00
2022-07-31T08:06:51.719Z,148753.19
2022-07-31T08:09:21.080Z,148772.78
2022-07-31T08:12:07.292Z,148841.41
2022-07-31T08:14:57.446Z,148875.75
2022-07-31T08:20:29.802Z,148907.59
2022-07-31T08:22:56.921Z,148961.56
2022-07-31T08:25:24.043Z,148973.81
2022-07-31T08:27:58.467Z,149005.69
2022-07-31T08:30:30.832Z,148970.13
2022-07-31T08:32:58.427Z,149062.06
2022-07-31T08:35:35.959Z,149030.19
2022-07-31T08:38:04.937Z,149026.50
2022-07-31T08:40:45.227Z,149035.09
2022-07-31T08:44:02.369Z,149062.06
2022-07-31T08:46:04.241Z,149089.09
2022-07-31T08:48:39.759Z,149071.88
2022-07-31T08:51:10.590Z,149064.56
2022-07-31T08:53:56.533Z,149069.44
2022-07-31T08:56:25.590Z,149022.88
2022-07-31T08:58:55.777Z,149096.47
2022-07-31T09:01:23.157Z,149135.69
2022-07-31T09:03:50.326Z,149129.56
2022-07-31T09:06:17.387Z,149170.06
2022-07-31T09:08:44.438Z,149155.31
2022-07-31T09:11:14.246Z,149150.41
2022-07-31T09:14:02.362Z,149145.50
2022-07-31T09:16:49.026Z,149130.78
2022-07-31T09:19:51.213Z,149102.59
2022-07-31T09:22:23.831Z,149127.09
2022-07-31T09:24:51.530Z,149111.19
2022-07-31T09:27:19.510Z,149027.78
2022-07-31T09:29:49.479Z,149135.69
2022-07-31T09:32:35.046Z,149192.09
2022-07-31T09:35:16.885Z,149161.47
2022-07-31T09:37:46.948Z,149231.34
2022-07-31T09:40:55.433Z,149172.47
2022-07-31T09:43:31.752Z,149254.72
2022-07-31T09:46:01.064Z,149248.53
2022-07-31T09:48:29.012Z,149262.09
2022-07-31T09:51:01.723Z,149217.88
2022-07-31T09:53:45.950Z,149311.13
2022-07-31T09:56:34.870Z,149300.09
2022-07-31T09:59:03.161Z,149298.88
2022-07-31T10:01:32.004Z,149300.09
2022-07-31T10:04:01.409Z,149264.50
2022-07-31T10:06:31.990Z,149285.38
2022-07-31T10:09:02.129Z,149221.56
2022-07-31T10:11:49.853Z,149236.25
2022-07-31T10:14:31.542Z,149309.91
2022-07-31T10:17:01.303Z,149214.19
2022-07-31T10:19:47.582Z,149305.00
2022-07-31T10:22:43.801Z,149276.78
2022-07-31T10:25:21.186Z,149379.81
2022-07-31T10:27:51.210Z,149334.44
2022-07-31T10:30:18.479Z,149397.00
2022-07-31T10:32:52.141Z,149508.72
2022-07-31T10:35:28.738Z,149631.53
2022-07-31T10:38:12.231Z,149640.13
2022-07-31T10:40:58.103Z,149594.69
2022-07-31T10:43:30.340Z,149563.94
2022-07-31T10:46:15.026Z,149626.63
2022-07-31T10:48:53.662Z,149680.59
2022-07-31T10:51:53.470Z,149675.69
2022-07-31T10:54:46.379Z,149589.78
2022-07-31T10:57:34.600Z,149533.25
2022-07-31T11:00:32.270Z,149555.34
2022-07-31T11:03:16.186Z,149527.13
2022-07-31T11:06:03.260Z,149584.88
2022-07-31T11:08:54.768Z,149578.72
2022-07-31T11:11:48.313Z,149599.59
2022-07-31T11:14:50.791Z,149625.34
2022-07-31T11:18:20.188Z,149572.53
2022-07-31T11:20:31.059Z,149568.84
2022-07-31T11:23:03.800Z,149651.16
2022-07-31T11:25:34.851Z,149577.50
2022-07-31T11:28:27.153Z,149584.88
2022-07-31T11:31:03.250Z,149676.94
2022-07-31T11:33:42.031Z,149695.38
2022-07-31T11:36:11.489Z,149707.63
2022-07-31T11:38:40.548Z,149656.06
2022-07-31T11:41:08.942Z,149616.81
2022-07-31T11:43:40.277Z,149670.78
2022-07-31T11:46:07.372Z,149632.72
2022-07-31T11:48:42.247Z,149651.16
2022-07-31T11:51:17.893Z,149774.00
2022-07-31T11:53:45.202Z,149857.50
2022-07-31T11:56:12.471Z,149843.97
2022-07-31T11:58:47.289Z,149878.34
2022-07-31T12:01:14.637Z,149887.00
2022-07-31T12:03:42.529Z,149778.91
2022-07-31T12:06:10.682Z,149813.25
2022-07-31T12:08:39.367Z,149775.22
2022-07-31T12:11:09.339Z,149740.81
2022-07-31T12:13:38.553Z,149663.44
2022-07-31T12:16:10.451Z,149622.91
2022-07-31T12:18:56.229Z,149604.50
2022-07-31T12:21:34.916Z,149563.94
2022-07-31T12:24:03.093Z,149631.53
2022-07-31T12:26:32.366Z,149584.88
2022-07-31T12:29:06.809Z,149675.69
2022-07-31T12:31:51.268Z,149705.19
2022-07-31T12:34:40.948Z,149769.09
2022-07-31T12:37:16.630Z,149803.44
2022-07-31T12:39:53.905Z,149818.19
2022-07-31T12:42:33.041Z,149764.19
2022-07-31T12:45:17.955Z,149707.63
2022-07-31T12:47:46.466Z,149753.09
2022-07-31T12:50:18.740Z,149805.94
2022-07-31T12:52:45.781Z,149791.16
2022-07-31T12:55:13.106Z,149767.81
2022-07-31T12:57:50.489Z,149759.22
2022-07-31T13:00:22.427Z,149801.00
2022-07-31T13:02:50.615Z,149879.63
2022-07-31T13:05:17.811Z,149832.91
2022-07-31T13:07:45.026Z,149963.19
2022-07-31T13:10:21.012Z,149911.59
2022-07-31T13:12:50.356Z,149977.91
2022-07-31T13:15:20.065Z,149906.63
2022-07-31T13:17:50.567Z,149948.44
2022-07-31T13:20:18.986Z,149925.06
2022-07-31T13:22:46.218Z,149968.09
2022-07-31T13:25:13.652Z,150032.00
2022-07-31T13:27:41.719Z,150049.19
2022-07-31T13:30:10.038Z,150068.91
2022-07-31T13:32:37.244Z,150179.50
2022-07-31T13:35:26.257Z,150147.53
2022-07-31T13:37:53.602Z,150109.41
2022-07-31T13:40:40.795Z,150034.41
2022-07-31T13:43:08.138Z,150034.41
2022-07-31T13:45:35.951Z,150007.38
2022-07-31T13:48:08.661Z,150019.69
2022-07-31T13:50:37.940Z,150163.50
2022-07-31T13:53:05.349Z,150270.47
2022-07-31T13:55:32.624Z,150343.06
2022-07-31T13:58:01.446Z,150280.34
2022-07-31T14:00:29.705Z,150188.16
2022-07-31T14:02:57.327Z,150174.56
2022-07-31T14:05:26.709Z,150177.00
2022-07-31T14:07:55.870Z,150130.31
2022-07-31T14:10:23.800Z,150057.81
2022-07-31T14:12:51.292Z,150102.06
2022-07-31T14:15:18.704Z,150216.41
2022-07-31T14:17:45.850Z,150140.16
2022-07-31T14:20:13.530Z,150118.00
2022-07-31T14:22:42.166Z,150045.56
2022-07-31T14:25:10.200Z,149977.91
2022-07-31T14:27:38.619Z,149923.84
2022-07-31T14:30:07.335Z,149903.00
2022-07-31T14:32:35.285Z,149975.44
2022-07-31T14:35:07.843Z,149980.34
2022-07-31T14:37:36.648Z,149938.59
2022-07-31T14:40:05.580Z,149917.72
2022-07-31T14:42:32.777Z,150016.00
2022-07-31T14:45:02.795Z,150159.78
2022-07-31T14:47:34.534Z,150140.16
2022-07-31T14:50:09.606Z,150180.72
2022-07-31T14:52:38.250Z,150165.97
2022-07-31T14:55:06.239Z,150183.16
2022-07-31T14:57:33.483Z,150135.22
2022-07-31T15:00:00.883Z,150145.06
2022-07-31T15:02:28.009Z,150206.59
2022-07-31T15:04:55.255Z,150213.94
2022-07-31T15:07:44.014Z,150274.16
2022-07-31T15:10:11.501Z,150142.63
2022-07-31T15:12:38.771Z,150039.38
2022-07-31T15:15:07.372Z,150050.47
2022-07-31T15:17:34.513Z,149958.28
2022-07-31T15:20:01.592Z,149981.63
2022-07-31T15:22:28.674Z,149932.47
2022-07-31T15:24:55.725Z,149942.28
2022-07-31T15:27:24.035Z,149882.03
2022-07-31T15:30:04.456Z,149977.91
2022-07-31T15:32:37.146Z,150019.69
2022-07-31T15:35:05.887Z,150044.28
2022-07-31T15:37:37.425Z,150076.25
2022-07-31T15:40:07.029Z,150061.50
2022-07-31T15:42:38.133Z,149945.97
2022-07-31T15:45:17.460Z,149904.22
2022-07-31T15:47:46.170Z,149840.28
2022-07-31T15:50:16.053Z,149805.94
2022-07-31T15:52:43.376Z,149756.78
2022-07-31T15:55:11.449Z,149761.69
2022-07-31T15:57:38.884Z,149692.88
2022-07-31T16:00:09.646Z,149700.28
2022-07-31T16:02:45.435Z,149678.16
2022-07-31T16:05:30.947Z,149687.97
2022-07-31T16:08:30.917Z,149707.63
2022-07-31T16:10:50.055Z,149679.38
2022-07-31T16:13:21.497Z,149642.56
2022-07-31T16:15:48.548Z,149653.63
2022-07-31T16:18:18.513Z,149625.34
2022-07-31T16:20:46.326Z,149689.19
2022-07-31T16:23:13.409Z,149748.19
2022-07-31T16:25:40.427Z,150007.38
2022-07-31T16:28:07.545Z,150204.09
2022-07-31T16:30:34.793Z,150382.41
2022-07-31T16:33:01.897Z,150669.06
2022-07-31T16:35:29.183Z,150654.31
2022-07-31T16:37:56.480Z,150882.03
2022-07-31T16:40:29.981Z,150927.59
2022-07-31T16:43:47.631Z,150587.81
2022-07-31T16:45:51.591Z,150320.88
2022-07-31T16:48:19.796Z,150638.31
2022-07-31T16:50:53.664Z,150957.13
2022-07-31T16:54:09.813Z,150981.72
2022-07-31T16:56:18.131Z,150717.03
2022-07-31T16:58:45.250Z,151117.22
2022-07-31T17:01:57.000Z,151334.06
2022-07-31T17:04:03.519Z,151255.19
2022-07-31T17:06:36.481Z,151459.78
2022-07-31T17:09:16.319Z,151754.44
2022-07-31T17:11:50.496Z,151770.47
2022-07-31T17:14:19.218Z,151819.81
2022-07-31T17:16:49.600Z,151522.69
2022-07-31T17:19:42.901Z,151469.63
2022-07-31T17:22:11.396Z,151696.47
2022-07-31T17:24:39.430Z,151671.84
2022-07-31T17:27:08.253Z,151726.09
2022-07-31T17:29:37.609Z,151655.78
2022-07-31T17:32:05.647Z,151453.63
2022-07-31T17:34:32.835Z,151048.28
2022-07-31T17:36:59.861Z,151306.97
2022-07-31T17:39:30.624Z,151151.72
2022-07-31T17:41:59.512Z,150570.59
2022-07-31T17:44:26.776Z,150191.81
2022-07-31T17:46:54.669Z,149950.88
2022-07-31T17:49:21.867Z,149847.69
2022-07-31T17:51:59.889Z,149742.06
2022-07-31T17:54:31.618Z,149718.69
2022-07-31T17:56:59.935Z,149605.72
2022-07-31T17:59:28.383Z,149653.63
2022-07-31T18:02:03.781Z,149597.13
2022-07-31T18:04:33.539Z,149624.13
2022-07-31T18:07:01.562Z,149557.81
2022-07-31T18:09:28.882Z,149513.63
2022-07-31T18:11:57.383Z,149570.06
2022-07-31T18:14:25.047Z,149494.00
2022-07-31T18:16:53.382Z,149501.38
2022-07-31T18:19:21.855Z,149417.91
2022-07-31T18:21:49.897Z,149484.19
2022-07-31T18:24:17.169Z,149494.00
2022-07-31T18:26:44.334Z,149469.47
2022-07-31T18:29:11.595Z,149431.41
2022-07-31T18:31:38.704Z,149480.50
2022-07-31T18:34:07.052Z,149440.00
2022-07-31T18:36:34.857Z,149447.38
2022-07-31T18:39:02.034Z,149435.09
2022-07-31T18:41:29.707Z,149422.81
2022-07-31T18:43:57.444Z,149336.91
2022-07-31T18:46:24.898Z,149352.81
2022-07-31T18:48:56.599Z,149357.72
2022-07-31T18:51:25.169Z,149349.13
2022-07-31T18:53:54.553Z,149295.19
2022-07-31T18:56:23.779Z,149335.69
2022-07-31T18:58:51.703Z,149322.19
2022-07-31T19:01:19.017Z,149324.63
2022-07-31T19:03:46.584Z,149280.47
2022-07-31T19:06:14.198Z,149290.28
2022-07-31T19:08:41.503Z,149248.53
2022-07-31T19:11:08.717Z,149209.28
2022-07-31T19:13:35.803Z,149209.28
2022-07-31T19:16:03.978Z,149221.56
2022-07-31T19:18:31.059Z,149181.06
2022-07-31T19:21:18.007Z,149184.75
2022-07-31T19:23:46.364Z,149127.09
2022-07-31T19:26:13.692Z,149165.09
2022-07-31T19:28:43.056Z,149170.06
2022-07-31T19:31:10.903Z,149064.56
2022-07-31T19:33:37.966Z,149152.88
2022-07-31T19:36:05.716Z,149145.50
2022-07-31T19:38:33.929Z,149167.59
2022-07-31T19:41:01.200Z,149106.28
2022-07-31T19:43:29.049Z,149130.78
2022-07-31T19:46:00.534Z,149109.91
2022-07-31T19:48:43.011Z,149015.50
2022-07-31T19:51:10.994Z,149047.38
2022-07-31T19:53:38.274Z,149074.34
2022-07-31T19:56:06.149Z,149003.22
2022-07-31T19:58:34.792Z,149019.19
2022-07-31T20:01:03.167Z,149042.47
2022-07-31T20:03:30.328Z,149005.69
2022-07-31T20:05:57.695Z,149003.22
2022-07-31T20:08:24.769Z,149027.78
2022-07-31T20:10:51.854Z,148993.41
2022-07-31T20:13:19.566Z,148998.31
2022-07-31T20:15:51.928Z,148979.94
2022-07-31T20:18:27.377Z,148987.31
2022-07-31T20:20:57.388Z,149004.47
2022-07-31T20:23:25.551Z,148984.84
2022-07-31T20:25:53.115Z,148934.59
2022-07-31T20:28:20.342Z,148978.72
2022-07-31T20:30:47.418Z,148973.81
2022-07-31T20:33:14.761Z,148961.56
2022-07-31T20:35:48.456Z,148940.75
2022-07-31T20:38:18.734Z,148863.47
2022-07-31T20:40:54.733Z,148956.66
2022-07-31T20:43:24.264Z,148910.09
2022-07-31T20:45:51.612Z,148956.66
2022-07-31T20:48:20.903Z,148968.94
2022-07-31T20:50:48.584Z,148968.94
2022-07-31T20:53:16.551Z,148941.94
2022-07-31T20:55:47.383Z,148895.34
2022-07-31T20:58:14.623Z,148945.63
2022-07-31T21:00:42.430Z,148929.69
2022-07-31T21:03:09.529Z,148924.78
2022-07-31T21:05:36.870Z,148910.09
2022-07-31T21:08:04.044Z,148902.66
2022-07-31T21:10:31.130Z,148896.56
2022-07-31T21:12:58.302Z,148885.53
2022-07-31T21:15:42.835Z,148891.66
2022-07-31T21:18:16.438Z,148903.94
2022-07-31T21:20:51.615Z,148836.50
2022-07-31T21:23:25.239Z,148841.41
2022-07-31T21:25:53.747Z,148770.38
2022-07-31T21:28:22.107Z,148818.13
2022-07-31T21:30:49.768Z,148809.53
2022-07-31T21:33:18.159Z,148783.84
2022-07-31T21:35:46.441Z,148800.97
2022-07-31T21:38:15.637Z,148797.28
2022-07-31T21:40:43.597Z,148753.19
2022-07-31T21:43:10.914Z,148767.88
2022-07-31T21:45:50.345Z,148718.81
2022-07-31T21:48:22.950Z,148701.72
2022-07-31T21:50:50.690Z,148677.19
2022-07-31T21:53:17.734Z,148657.59
2022-07-31T21:55:44.855Z,148586.56
2022-07-31T21:58:11.927Z,148613.47
2022-07-31T22:00:39.339Z,148607.38
2022-07-31T22:03:06.603Z,148615.94
2022-07-31T22:05:53.237Z,148593.91
2022-07-31T22:08:20.765Z,148618.41
2022-07-31T22:10:50.660Z,148603.69
2022-07-31T22:13:19.429Z,148514.28
2022-07-31T22:15:55.525Z,148586.56
2022-07-31T22:18:30.507Z,148569.41
2022-07-31T22:20:58.984Z,148547.38
2022-07-31T22:23:27.437Z,148471.44
2022-07-31T22:25:55.312Z,148498.31
2022-07-31T22:28:23.757Z,148562.06
2022-07-31T22:30:51.516Z,148363.69
2022-07-31T22:33:19.129Z,148442.03
2022-07-31T22:35:58.897Z,148405.28
2022-07-31T22:38:29.746Z,148412.66
2022-07-31T22:40:58.761Z,148380.81
2022-07-31T22:44:10.795Z,148273.06
2022-07-31T22:46:14.005Z,148351.41
2022-07-31T22:48:41.429Z,148336.69
2022-07-31T22:51:09.086Z,148329.38
2022-07-31T22:53:39.878Z,148227.81
2022-07-31T22:56:06.964Z,148324.50
2022-07-31T22:58:35.498Z,148286.53
2022-07-31T23:01:02.585Z,148297.56
2022-07-31T23:03:29.664Z,148271.84
2022-07-31T23:06:05.286Z,148277.94
2022-07-31T23:08:43.711Z,148279.22
2022-07-31T23:11:10.746Z,148309.78
2022-07-31T23:13:39.803Z,148287.78
2022-07-31T23:16:06.868Z,148246.19
2022-07-31T23:18:34.012Z,148242.50
2022-07-31T23:21:01.146Z,148317.13
2022-07-31T23:23:28.186Z,148273.06
2022-07-31T23:25:55.211Z,148260.84
2022-07-31T23:28:22.275Z,148222.88
2022-07-31T23:30:49.309Z,148197.22
2022-07-31T23:33:17.042Z,148180.06
2022-07-31T23:35:44.364Z,148143.31
2022-07-31T23:38:11.890Z,148155.63
2022-07-31T23:40:38.905Z,148113.97
2022-07-31T23:43:05.984Z,148155.63
2022-07-31T23:45:33.007Z,148138.44
2022-07-31T23:48:00.037Z,148127.44
2022-07-31T23:50:27.961Z,148128.66
2022-07-31T23:52:55.046Z,148101.75
2022-07-31T23:55:22.389Z,148077.28
2022-07-31T23:57:51.326Z,148127.44
